createdAt,value
2023-04-26T00:01:10.866Z,3.75
2023-04-26T00:11:12.388Z,3.51
2023-04-26T00:21:13.844Z,3.41
2023-04-26T00:31:16.175Z,3.35
2023-04-26T00:41:17.610Z,3.22
2023-04-26T00:51:19.011Z,3.21
2023-04-26T01:01:21.320Z,3.03
2023-04-26T01:11:23.461Z,2.82
2023-04-26T01:21:25.201Z,2.78
2023-04-26T01:31:26.665Z,2.83
2023-04-26T01:41:28.124Z,2.71
2023-04-26T01:51:29.618Z,2.50
2023-04-26T02:01:31.493Z,2.44
2023-04-26T02:11:32.955Z,2.39
2023-04-26T02:21:50.369Z,2.29
2023-04-26T02:31:51.913Z,2.18
2023-04-26T02:41:53.462Z,2.12
2023-04-26T02:51:54.935Z,2.11
2023-04-26T03:01:56.350Z,2.14
2023-04-26T03:11:58.455Z,2.07
2023-04-26T03:21:59.796Z,2.04
2023-04-26T03:32:01.321Z,2.03
2023-04-26T03:42:04.099Z,1.99
2023-04-26T03:52:05.434Z,2.02
2023-04-26T04:02:07.169Z,1.99
2023-04-26T04:12:08.630Z,1.82
2023-04-26T04:22:10.144Z,1.84
2023-04-26T04:32:13.749Z,1.73
2023-04-26T04:42:15.247Z,1.80
2023-04-26T04:52:18.789Z,1.77
2023-04-26T05:02:20.638Z,1.91
2023-04-26T05:12:22.173Z,2.01
2023-04-26T05:22:23.760Z,2.27
2023-04-26T05:32:25.142Z,2.51
2023-04-26T05:42:26.595Z,2.78
2023-04-26T05:52:28.330Z,4.15
2023-04-26T06:02:30.049Z,5.18
2023-04-26T06:12:31.627Z,5.30
2023-04-26T06:22:33.240Z,5.64
2023-04-26T06:32:34.728Z,5.85
2023-04-26T06:42:36.748Z,6.44
2023-04-26T06:52:38.754Z,7.06
2023-04-26T07:02:40.505Z,7.20
2023-04-26T07:12:41.931Z,7.52
2023-04-26T07:22:47.200Z,7.88
2023-04-26T07:32:48.948Z,8.38
2023-04-26T07:42:50.625Z,8.63
2023-04-26T07:52:52.090Z,8.89
2023-04-26T08:02:53.725Z,9.18
2023-04-26T08:12:57.293Z,9.18
2023-04-26T08:22:59.378Z,9.29
2023-04-26T08:33:01.280Z,9.40
2023-04-26T08:43:02.881Z,9.71
2023-04-26T08:53:05.989Z,10.07
2023-04-26T09:03:07.474Z,10.20
2023-04-26T09:13:09.112Z,10.28
2023-04-26T09:23:10.616Z,10.14
2023-04-26T09:33:12.123Z,10.02
2023-04-26T09:43:18.994Z,10.19
2023-04-26T09:53:28.123Z,10.46
2023-04-26T10:03:30.312Z,10.69
2023-04-26T10:13:32.836Z,10.53
2023-04-26T10:23:35.479Z,10.59
2023-04-26T10:33:37.203Z,10.78
2023-04-26T10:43:42.743Z,11.02
2023-04-26T10:53:47.108Z,11.04
2023-04-26T11:03:58.270Z,11.20
2023-04-26T11:14:02.021Z,11.41
2023-04-26T11:24:03.649Z,11.36
2023-04-26T11:34:05.380Z,11.19
2023-04-26T11:44:06.968Z,11.24
2023-04-26T11:54:08.586Z,11.15
2023-04-26T12:04:10.754Z,11.37
2023-04-26T12:14:16.123Z,11.54
2023-04-26T12:24:34.393Z,11.60
2023-04-26T12:34:36.048Z,11.53
2023-04-26T12:44:37.499Z,11.51
2023-04-26T12:54:39.248Z,11.73
2023-04-26T13:04:41.740Z,11.61
2023-04-26T13:14:43.630Z,11.63
2023-04-26T13:24:45.172Z,11.63
2023-04-26T13:34:46.718Z,11.90
2023-04-26T13:44:48.153Z,11.82
2023-04-26T13:54:49.684Z,11.71
2023-04-26T14:04:51.966Z,11.68
2023-04-26T14:14:53.650Z,11.98
2023-04-26T14:24:55.236Z,11.92
2023-04-26T14:34:56.957Z,11.84
2023-04-26T14:44:58.995Z,11.84
2023-04-26T14:55:00.530Z,12.05
2023-04-26T15:05:04.703Z,12.23
2023-04-26T15:15:07.111Z,12.26
2023-04-26T15:25:09.133Z,12.19
2023-04-26T15:35:13.027Z,12.14
2023-04-26T15:45:14.746Z,12.04
2023-04-26T15:55:16.355Z,11.90
2023-04-26T16:05:18.043Z,11.71
2023-04-26T16:15:19.767Z,11.69
2023-04-26T16:25:22.256Z,11.60
2023-04-26T16:35:23.957Z,11.55
2023-04-26T16:45:26.147Z,11.48
2023-04-26T16:55:27.493Z,11.37
2023-04-26T17:05:29.741Z,11.31
2023-04-26T17:15:33.261Z,11.24
2023-04-26T17:25:34.848Z,11.24
2023-04-26T17:35:36.283Z,11.10
2023-04-26T17:45:37.775Z,10.86
2023-04-26T17:55:39.205Z,10.81
2023-04-26T18:05:40.759Z,10.57
2023-04-26T18:15:42.103Z,10.46
2023-04-26T18:25:45.218Z,10.38
2023-04-26T18:35:48.722Z,10.03
2023-04-26T18:45:51.339Z,10.01
2023-04-26T18:55:55.590Z,9.72
2023-04-26T19:05:56.989Z,9.73
2023-04-26T19:15:58.459Z,9.57
2023-04-26T19:26:08.495Z,9.34
2023-04-26T19:36:10.602Z,9.40
2023-04-26T19:46:13.217Z,9.51
2023-04-26T19:56:14.728Z,9.27
2023-04-26T20:06:16.562Z,9.06
2023-04-26T20:16:18.000Z,8.99
2023-04-26T20:26:19.437Z,8.82
2023-04-26T20:36:21.012Z,8.88
2023-04-26T20:46:22.943Z,8.81
2023-04-26T20:56:24.477Z,8.67
2023-04-26T21:06:27.076Z,8.33
2023-04-26T21:16:28.817Z,8.17
2023-04-26T21:26:30.330Z,8.24
2023-04-26T21:36:32.467Z,8.04
2023-04-26T21:46:33.946Z,8.05
2023-04-26T21:56:35.797Z,7.95
2023-04-26T22:06:37.197Z,7.75
2023-04-26T22:16:38.826Z,7.49
2023-04-26T22:26:40.242Z,7.44
2023-04-26T22:36:42.813Z,7.18
2023-04-26T22:46:44.192Z,6.91
2023-04-26T22:56:45.760Z,6.65
2023-04-26T23:06:47.230Z,6.55
2023-04-26T23:16:49.019Z,6.38
2023-04-26T23:26:50.558Z,6.27
2023-04-26T23:36:52.155Z,5.79
2023-04-26T23:46:53.729Z,5.63
2023-04-26T23:56:55.177Z,5.50
